sensor_id;sensor_type;location;lat;lon;timestamp;pressure;altitude;pressure_sealevel;temperature;humidity
16613;BME280;8419;52.358;9.752;2024-02-21T00:01:08;101450.00;;;16.58;47.12
16613;BME280;8419;52.358;9.752;2024-02-21T00:03:53;101450.00;;;16.68;46.88
16613;BME280;8419;52.358;9.752;2024-02-21T00:06:38;101450.00;;;16.74;46.80
16613;BME280;8419;52.358;9.752;2024-02-21T00:09:24;101452.00;;;16.94;46.21
16613;BME280;8419;52.358;9.752;2024-02-21T00:12:09;101452.00;;;16.85;46.27
16613;BME280;8419;52.358;9.752;2024-02-21T00:14:57;101447.00;;;16.62;46.94
16613;BME280;8419;52.358;9.752;2024-02-21T00:17:44;101439.00;;;16.71;46.75
16613;BME280;8419;52.358;9.752;2024-02-21T00:20:32;101433.00;;;16.93;46.24
16613;BME280;8419;52.358;9.752;2024-02-21T00:23:17;101424.00;;;16.75;46.60
16613;BME280;8419;52.358;9.752;2024-02-21T00:26:03;101428.00;;;16.68;46.79
16613;BME280;8419;52.358;9.752;2024-02-21T00:28:52;101424.00;;;16.84;46.49
16613;BME280;8419;52.358;9.752;2024-02-21T00:31:59;101430.00;;;16.74;46.80
16613;BME280;8419;52.358;9.752;2024-02-21T00:34:45;101420.00;;;16.91;46.26
16613;BME280;8419;52.358;9.752;2024-02-21T00:37:31;101416.00;;;16.87;46.41
16613;BME280;8419;52.358;9.752;2024-02-21T00:40:17;101406.00;;;16.86;46.47
16613;BME280;8419;52.358;9.752;2024-02-21T00:43:07;101406.00;;;16.92;46.24
16613;BME280;8419;52.358;9.752;2024-02-21T00:45:53;101411.00;;;16.80;46.69
16613;BME280;8419;52.358;9.752;2024-02-21T00:48:38;101404.00;;;16.63;46.93
16613;BME280;8419;52.358;9.752;2024-02-21T00:51:24;101406.00;;;16.86;46.44
16613;BME280;8419;52.358;9.752;2024-02-21T00:54:09;101404.00;;;16.85;46.46
16613;BME280;8419;52.358;9.752;2024-02-21T00:56:55;101399.00;;;16.73;46.75
16613;BME280;8419;52.358;9.752;2024-02-21T00:59:41;101385.00;;;16.86;46.57
16613;BME280;8419;52.358;9.752;2024-02-21T01:02:28;101374.00;;;16.91;46.46
16613;BME280;8419;52.358;9.752;2024-02-21T01:05:17;101378.00;;;16.73;46.85
16613;BME280;8419;52.358;9.752;2024-02-21T01:08:03;101375.00;;;16.91;46.45
16613;BME280;8419;52.358;9.752;2024-02-21T01:10:50;101370.00;;;16.84;46.41
16613;BME280;8419;52.358;9.752;2024-02-21T01:13:35;101370.00;;;17.05;46.04
16613;BME280;8419;52.358;9.752;2024-02-21T01:16:20;101368.00;;;17.02;46.05
16613;BME280;8419;52.358;9.752;2024-02-21T01:19:06;101373.00;;;17.02;45.99
16613;BME280;8419;52.358;9.752;2024-02-21T01:21:53;101357.00;;;17.03;45.88
16613;BME280;8419;52.358;9.752;2024-02-21T01:24:38;101351.00;;;16.82;46.19
16613;BME280;8419;52.358;9.752;2024-02-21T01:27:25;101349.00;;;16.86;46.17
16613;BME280;8419;52.358;9.752;2024-02-21T01:30:12;101353.00;;;16.93;45.92
16613;BME280;8419;52.358;9.752;2024-02-21T01:32:59;101351.00;;;16.92;45.81
16613;BME280;8419;52.358;9.752;2024-02-21T01:35:45;101344.00;;;16.72;46.29
16613;BME280;8419;52.358;9.752;2024-02-21T01:38:30;101347.00;;;16.75;46.26
16613;BME280;8419;52.358;9.752;2024-02-21T01:41:17;101349.00;;;16.81;45.89
16613;BME280;8419;52.358;9.752;2024-02-21T01:44:02;101352.00;;;16.78;46.09
16613;BME280;8419;52.358;9.752;2024-02-21T01:46:48;101343.00;;;16.82;45.95
16613;BME280;8419;52.358;9.752;2024-02-21T01:49:33;101329.00;;;16.86;45.75
16613;BME280;8419;52.358;9.752;2024-02-21T01:52:19;101347.00;;;16.92;45.63
16613;BME280;8419;52.358;9.752;2024-02-21T01:55:06;101338.00;;;16.93;45.52
16613;BME280;8419;52.358;9.752;2024-02-21T01:57:52;101329.00;;;16.94;45.43
16613;BME280;8419;52.358;9.752;2024-02-21T02:00:40;101329.00;;;17.00;45.27
16613;BME280;8419;52.358;9.752;2024-02-21T02:03:27;101328.00;;;17.00;45.34
16613;BME280;8419;52.358;9.752;2024-02-21T02:06:13;101326.00;;;16.99;45.31
16613;BME280;8419;52.358;9.752;2024-02-21T02:08:59;101304.00;;;17.02;45.18
16613;BME280;8419;52.358;9.752;2024-02-21T02:11:45;101317.00;;;17.03;45.15
16613;BME280;8419;52.358;9.752;2024-02-21T02:14:31;101314.00;;;16.90;45.44
16613;BME280;8419;52.358;9.752;2024-02-21T02:17:16;101304.00;;;16.89;45.40
16613;BME280;8419;52.358;9.752;2024-02-21T02:20:01;101307.00;;;16.88;45.43
16613;BME280;8419;52.358;9.752;2024-02-21T02:22:47;101299.00;;;16.89;45.33
16613;BME280;8419;52.358;9.752;2024-02-21T02:25:34;101295.00;;;16.90;45.37
16613;BME280;8419;52.358;9.752;2024-02-21T02:28:20;101291.00;;;16.98;45.14
16613;BME280;8419;52.358;9.752;2024-02-21T02:31:06;101292.00;;;16.98;45.04
16613;BME280;8419;52.358;9.752;2024-02-21T02:33:53;101279.00;;;16.90;45.17
16613;BME280;8419;52.358;9.752;2024-02-21T02:36:40;101275.00;;;16.94;45.11
16613;BME280;8419;52.358;9.752;2024-02-21T02:39:28;101260.00;;;16.88;45.15
16613;BME280;8419;52.358;9.752;2024-02-21T02:42:14;101259.00;;;16.89;45.10
16613;BME280;8419;52.358;9.752;2024-02-21T02:44:59;101255.00;;;16.90;45.09
16613;BME280;8419;52.358;9.752;2024-02-21T02:47:46;101249.00;;;16.97;44.94
16613;BME280;8419;52.358;9.752;2024-02-21T02:50:31;101247.00;;;17.06;44.78
16613;BME280;8419;52.358;9.752;2024-02-21T02:53:17;101252.00;;;16.96;44.92
16613;BME280;8419;52.358;9.752;2024-02-21T02:56:04;101244.00;;;17.03;44.85
16613;BME280;8419;52.358;9.752;2024-02-21T02:58:49;101238.00;;;16.97;45.00
16613;BME280;8419;52.358;9.752;2024-02-21T03:01:35;101242.00;;;16.93;44.88
16613;BME280;8419;52.358;9.752;2024-02-21T03:04:20;101225.00;;;17.00;44.72
16613;BME280;8419;52.358;9.752;2024-02-21T03:07:06;101219.00;;;17.04;44.65
16613;BME280;8419;52.358;9.752;2024-02-21T03:09:53;101221.00;;;17.00;44.70
16613;BME280;8419;52.358;9.752;2024-02-21T03:12:40;101210.00;;;16.96;44.78
16613;BME280;8419;52.358;9.752;2024-02-21T03:15:25;101202.00;;;16.93;44.79
16613;BME280;8419;52.358;9.752;2024-02-21T03:18:11;101194.00;;;16.99;44.66
16613;BME280;8419;52.358;9.752;2024-02-21T03:20:57;101178.00;;;16.98;44.62
16613;BME280;8419;52.358;9.752;2024-02-21T03:23:43;101172.00;;;17.03;44.58
16613;BME280;8419;52.358;9.752;2024-02-21T03:26:28;101169.00;;;17.03;44.62
16613;BME280;8419;52.358;9.752;2024-02-21T03:29:14;101162.00;;;16.96;44.68
16613;BME280;8419;52.358;9.752;2024-02-21T03:32:00;101151.00;;;16.93;44.60
16613;BME280;8419;52.358;9.752;2024-02-21T03:34:45;101143.00;;;16.88;44.77
16613;BME280;8419;52.358;9.752;2024-02-21T03:37:31;101151.00;;;16.88;44.80
16613;BME280;8419;52.358;9.752;2024-02-21T03:40:17;101146.00;;;16.87;44.79
16613;BME280;8419;52.358;9.752;2024-02-21T03:43:05;101144.00;;;16.89;44.69
16613;BME280;8419;52.358;9.752;2024-02-21T03:45:51;101133.00;;;16.89;44.67
16613;BME280;8419;52.358;9.752;2024-02-21T03:48:38;101118.00;;;16.89;44.54
16613;BME280;8419;52.358;9.752;2024-02-21T03:51:23;101121.00;;;16.85;44.60
16613;BME280;8419;52.358;9.752;2024-02-21T03:54:09;101138.00;;;16.84;44.58
16613;BME280;8419;52.358;9.752;2024-02-21T03:56:54;101164.00;;;16.88;44.42
16613;BME280;8419;52.358;9.752;2024-02-21T03:59:40;101136.00;;;16.78;44.60
16613;BME280;8419;52.358;9.752;2024-02-21T04:02:26;101145.00;;;16.83;44.59
16613;BME280;8419;52.358;9.752;2024-02-21T04:05:11;101144.00;;;16.75;44.64
16613;BME280;8419;52.358;9.752;2024-02-21T04:07:56;101157.00;;;16.76;44.62
16613;BME280;8419;52.358;9.752;2024-02-21T04:10:41;101160.00;;;16.81;44.52
16613;BME280;8419;52.358;9.752;2024-02-21T04:13:27;101166.00;;;16.96;44.26
16613;BME280;8419;52.358;9.752;2024-02-21T04:16:13;101174.00;;;17.00;44.18
16613;BME280;8419;52.358;9.752;2024-02-21T04:18:58;101176.00;;;16.95;44.27
16613;BME280;8419;52.358;9.752;2024-02-21T04:21:44;101189.00;;;17.06;44.02
16613;BME280;8419;52.358;9.752;2024-02-21T04:24:29;101192.00;;;17.19;43.73
16613;BME280;8419;52.358;9.752;2024-02-21T04:27:15;101179.00;;;17.04;44.11
16613;BME280;8419;52.358;9.752;2024-02-21T04:30:00;101168.00;;;16.98;44.22
16613;BME280;8419;52.358;9.752;2024-02-21T04:32:46;101170.00;;;17.02;44.08
16613;BME280;8419;52.358;9.752;2024-02-21T04:35:32;101173.00;;;16.98;44.21
16613;BME280;8419;52.358;9.752;2024-02-21T04:38:18;101172.00;;;17.03;44.19
16613;BME280;8419;52.358;9.752;2024-02-21T04:41:03;101184.00;;;17.03;44.21
16613;BME280;8419;52.358;9.752;2024-02-21T04:44:05;101180.00;;;17.06;44.19
16613;BME280;8419;52.358;9.752;2024-02-21T04:46:51;101172.00;;;17.06;44.09
16613;BME280;8419;52.358;9.752;2024-02-21T04:49:37;101168.00;;;17.07;43.96
16613;BME280;8419;52.358;9.752;2024-02-21T04:52:23;101181.00;;;17.05;43.98
16613;BME280;8419;52.358;9.752;2024-02-21T04:55:10;101183.00;;;17.08;43.94
16613;BME280;8419;52.358;9.752;2024-02-21T04:57:56;101183.00;;;17.06;44.01
16613;BME280;8419;52.358;9.752;2024-02-21T05:00:42;101181.00;;;16.94;44.19
16613;BME280;8419;52.358;9.752;2024-02-21T05:03:27;101189.00;;;16.90;44.26
16613;BME280;8419;52.358;9.752;2024-02-21T05:06:13;101187.00;;;16.89;44.38
16613;BME280;8419;52.358;9.752;2024-02-21T05:08:59;101190.00;;;16.89;44.39
16613;BME280;8419;52.358;9.752;2024-02-21T05:11:45;101172.00;;;16.96;44.27
16613;BME280;8419;52.358;9.752;2024-02-21T05:14:31;101175.00;;;17.03;44.08
16613;BME280;8419;52.358;9.752;2024-02-21T05:17:16;101167.00;;;17.06;43.96
16613;BME280;8419;52.358;9.752;2024-02-21T05:20:02;101163.00;;;17.11;43.89
16613;BME280;8419;52.358;9.752;2024-02-21T05:22:48;101161.00;;;17.12;43.91
16613;BME280;8419;52.358;9.752;2024-02-21T05:25:33;101161.00;;;17.09;43.94
16613;BME280;8419;52.358;9.752;2024-02-21T05:28:19;101161.00;;;17.09;44.00
16613;BME280;8419;52.358;9.752;2024-02-21T05:31:08;101168.00;;;17.07;44.06
16613;BME280;8419;52.358;9.752;2024-02-21T05:33:56;101153.00;;;17.00;44.21
16613;BME280;8419;52.358;9.752;2024-02-21T05:36:42;101150.00;;;17.18;43.83
16613;BME280;8419;52.358;9.752;2024-02-21T05:39:27;101152.00;;;17.16;43.85
16613;BME280;8419;52.358;9.752;2024-02-21T05:42:14;101151.00;;;17.09;43.93
16613;BME280;8419;52.358;9.752;2024-02-21T05:45:01;101133.00;;;17.11;43.93
16613;BME280;8419;52.358;9.752;2024-02-21T05:47:48;101141.00;;;17.12;43.94
16613;BME280;8419;52.358;9.752;2024-02-21T05:50:33;101143.00;;;17.11;43.99
16613;BME280;8419;52.358;9.752;2024-02-21T05:53:19;101144.00;;;17.17;43.87
16613;BME280;8419;52.358;9.752;2024-02-21T05:56:06;101153.00;;;17.12;43.99
16613;BME280;8419;52.358;9.752;2024-02-21T05:58:54;101141.00;;;17.03;44.13
16613;BME280;8419;52.358;9.752;2024-02-21T06:01:40;101144.00;;;17.05;44.16
16613;BME280;8419;52.358;9.752;2024-02-21T06:04:25;101147.00;;;17.00;44.21
16613;BME280;8419;52.358;9.752;2024-02-21T06:07:11;101141.00;;;17.00;44.27
16613;BME280;8419;52.358;9.752;2024-02-21T06:09:57;101148.00;;;17.01;44.24
16613;BME280;8419;52.358;9.752;2024-02-21T06:12:42;101144.00;;;17.05;44.19
16613;BME280;8419;52.358;9.752;2024-02-21T06:15:28;101133.00;;;17.05;44.22
16613;BME280;8419;52.358;9.752;2024-02-21T06:18:13;101136.00;;;17.07;44.19
16613;BME280;8419;52.358;9.752;2024-02-21T06:20:59;101130.00;;;17.09;44.18
16613;BME280;8419;52.358;9.752;2024-02-21T06:26:41;101115.00;;;17.19;44.33
16613;BME280;8419;52.358;9.752;2024-02-21T06:29:29;101130.00;;;16.90;44.77
16613;BME280;8419;52.358;9.752;2024-02-21T06:32:14;101123.00;;;17.04;44.46
16613;BME280;8419;52.358;9.752;2024-02-21T06:35:00;101117.00;;;16.86;44.81
16613;BME280;8419;52.358;9.752;2024-02-21T06:37:46;101109.00;;;17.03;44.35
16613;BME280;8419;52.358;9.752;2024-02-21T06:40:36;101113.00;;;17.06;44.31
16613;BME280;8419;52.358;9.752;2024-02-21T06:43:24;101111.00;;;17.11;44.17
16613;BME280;8419;52.358;9.752;2024-02-21T06:46:10;101114.00;;;16.82;44.79
16613;BME280;8419;52.358;9.752;2024-02-21T06:48:55;101112.00;;;16.79;44.92
16613;BME280;8419;52.358;9.752;2024-02-21T06:51:41;101113.00;;;17.06;44.40
16613;BME280;8419;52.358;9.752;2024-02-21T06:54:27;101113.00;;;16.96;44.52
16613;BME280;8419;52.358;9.752;2024-02-21T06:57:12;101110.00;;;17.10;44.32
16613;BME280;8419;52.358;9.752;2024-02-21T06:59:57;101123.00;;;17.18;44.14
16613;BME280;8419;52.358;9.752;2024-02-21T07:02:43;101118.00;;;17.15;44.14
16613;BME280;8419;52.358;9.752;2024-02-21T07:05:28;101123.00;;;17.18;44.14
16613;BME280;8419;52.358;9.752;2024-02-21T07:08:14;101121.00;;;17.19;44.11
16613;BME280;8419;52.358;9.752;2024-02-21T07:10:59;101110.00;;;17.19;44.13
16613;BME280;8419;52.358;9.752;2024-02-21T07:13:45;101117.00;;;17.20;44.13
16613;BME280;8419;52.358;9.752;2024-02-21T07:16:30;101119.00;;;17.22;44.14
16613;BME280;8419;52.358;9.752;2024-02-21T07:19:17;101119.00;;;17.22;44.16
16613;BME280;8419;52.358;9.752;2024-02-21T07:22:03;101117.00;;;17.20;44.18
16613;BME280;8419;52.358;9.752;2024-02-21T07:24:49;101100.00;;;17.22;44.17
16613;BME280;8419;52.358;9.752;2024-02-21T07:27:35;101107.00;;;17.21;44.16
16613;BME280;8419;52.358;9.752;2024-02-21T07:30:22;101111.00;;;17.26;44.01
16613;BME280;8419;52.358;9.752;2024-02-21T07:33:07;101112.00;;;17.24;44.03
16613;BME280;8419;52.358;9.752;2024-02-21T07:35:53;101109.00;;;17.25;44.01
16613;BME280;8419;52.358;9.752;2024-02-21T07:38:38;101105.00;;;17.23;44.02
16613;BME280;8419;52.358;9.752;2024-02-21T07:41:24;101109.00;;;17.25;44.07
16613;BME280;8419;52.358;9.752;2024-02-21T07:44:09;101117.00;;;17.36;43.92
16613;BME280;8419;52.358;9.752;2024-02-21T07:46:55;101129.00;;;17.44;43.86
16613;BME280;8419;52.358;9.752;2024-02-21T07:49:44;101125.00;;;17.51;43.70
16613;BME280;8419;52.358;9.752;2024-02-21T07:52:30;101128.00;;;17.52;43.71
16613;BME280;8419;52.358;9.752;2024-02-21T07:55:16;101132.00;;;17.44;43.86
16613;BME280;8419;52.358;9.752;2024-02-21T07:58:01;101128.00;;;17.36;43.87
16613;BME280;8419;52.358;9.752;2024-02-21T08:00:48;101121.00;;;17.38;43.88
16613;BME280;8419;52.358;9.752;2024-02-21T08:03:35;101113.00;;;17.44;43.82
16613;BME280;8419;52.358;9.752;2024-02-21T08:06:20;101110.00;;;17.51;43.73
16613;BME280;8419;52.358;9.752;2024-02-21T08:09:06;101120.00;;;17.57;43.64
16613;BME280;8419;52.358;9.752;2024-02-21T08:11:53;101118.00;;;17.59;43.65
16613;BME280;8419;52.358;9.752;2024-02-21T08:14:39;101115.00;;;17.62;43.58
16613;BME280;8419;52.358;9.752;2024-02-21T08:17:24;101105.00;;;17.70;43.45
16613;BME280;8419;52.358;9.752;2024-02-21T08:20:11;101121.00;;;17.73;43.35
16613;BME280;8419;52.358;9.752;2024-02-21T08:22:58;101113.00;;;17.82;43.25
16613;BME280;8419;52.358;9.752;2024-02-21T08:25:44;101121.00;;;17.78;43.16
16613;BME280;8419;52.358;9.752;2024-02-21T08:28:31;101110.00;;;17.76;43.15
16613;BME280;8419;52.358;9.752;2024-02-21T08:31:19;101112.00;;;17.76;43.15
16613;BME280;8419;52.358;9.752;2024-02-21T08:34:05;101101.00;;;17.81;43.01
16613;BME280;8419;52.358;9.752;2024-02-21T08:36:51;101108.00;;;17.84;42.99
16613;BME280;8419;52.358;9.752;2024-02-21T08:39:36;101099.00;;;17.85;42.88
16613;BME280;8419;52.358;9.752;2024-02-21T08:42:21;101093.00;;;17.86;42.84
16613;BME280;8419;52.358;9.752;2024-02-21T08:45:08;101094.00;;;17.92;42.85
16613;BME280;8419;52.358;9.752;2024-02-21T08:47:53;101101.00;;;17.98;42.77
16613;BME280;8419;52.358;9.752;2024-02-21T08:50:39;101091.00;;;18.08;42.64
16613;BME280;8419;52.358;9.752;2024-02-21T08:53:23;101074.00;;;18.22;42.31
16613;BME280;8419;52.358;9.752;2024-02-21T08:56:09;101084.00;;;18.25;42.10
16613;BME280;8419;52.358;9.752;2024-02-21T08:58:54;101074.00;;;18.33;41.96
16613;BME280;8419;52.358;9.752;2024-02-21T09:01:40;101064.00;;;18.35;41.81
16613;BME280;8419;52.358;9.752;2024-02-21T09:04:26;101070.00;;;18.45;41.69
16613;BME280;8419;52.358;9.752;2024-02-21T09:07:12;101065.00;;;18.48;41.61
16613;BME280;8419;52.358;9.752;2024-02-21T09:09:57;101072.00;;;18.56;41.60
16613;BME280;8419;52.358;9.752;2024-02-21T09:12:42;101069.00;;;18.64;41.24
16613;BME280;8419;52.358;9.752;2024-02-21T09:15:28;101054.00;;;18.70;41.10
16613;BME280;8419;52.358;9.752;2024-02-21T09:18:14;101058.00;;;18.82;40.86
16613;BME280;8419;52.358;9.752;2024-02-21T09:20:59;101061.00;;;18.84;40.60
16613;BME280;8419;52.358;9.752;2024-02-21T09:23:45;101047.00;;;18.90;40.54
16613;BME280;8419;52.358;9.752;2024-02-21T09:26:32;101053.00;;;19.02;40.50
16613;BME280;8419;52.358;9.752;2024-02-21T09:29:17;101054.00;;;19.18;40.32
16613;BME280;8419;52.358;9.752;2024-02-21T09:32:03;101051.00;;;19.35;39.93
16613;BME280;8419;52.358;9.752;2024-02-21T09:34:48;101049.00;;;19.44;39.50
16613;BME280;8419;52.358;9.752;2024-02-21T09:37:33;101041.00;;;19.49;39.40
16613;BME280;8419;52.358;9.752;2024-02-21T09:40:19;101037.00;;;19.50;39.10
16613;BME280;8419;52.358;9.752;2024-02-21T09:43:05;101038.00;;;19.50;38.54
16613;BME280;8419;52.358;9.752;2024-02-21T09:45:55;101033.00;;;19.44;38.35
16613;BME280;8419;52.358;9.752;2024-02-21T09:48:55;101033.00;;;19.41;38.38
16613;BME280;8419;52.358;9.752;2024-02-21T09:51:45;101034.00;;;19.39;38.15
16613;BME280;8419;52.358;9.752;2024-02-21T09:54:34;101041.00;;;19.39;38.24
16613;BME280;8419;52.358;9.752;2024-02-21T09:57:20;101040.00;;;19.37;38.07
16613;BME280;8419;52.358;9.752;2024-02-21T10:00:09;101041.00;;;19.42;37.64
16613;BME280;8419;52.358;9.752;2024-02-21T10:02:54;101034.00;;;19.45;37.78
16613;BME280;8419;52.358;9.752;2024-02-21T10:05:48;101041.00;;;19.44;37.62
16613;BME280;8419;52.358;9.752;2024-02-21T10:08:35;101031.00;;;19.46;37.77
16613;BME280;8419;52.358;9.752;2024-02-21T10:11:23;101036.00;;;19.52;37.71
16613;BME280;8419;52.358;9.752;2024-02-21T10:14:09;101035.00;;;19.63;37.42
16613;BME280;8419;52.358;9.752;2024-02-21T10:16:58;101027.00;;;19.61;37.15
16613;BME280;8419;52.358;9.752;2024-02-21T10:19:44;101027.00;;;19.50;37.30
16613;BME280;8419;52.358;9.752;2024-02-21T10:22:29;101023.00;;;19.62;37.25
16613;BME280;8419;52.358;9.752;2024-02-21T10:25:18;101007.00;;;19.76;37.08
16613;BME280;8419;52.358;9.752;2024-02-21T10:28:05;101008.00;;;19.82;36.73
16613;BME280;8419;52.358;9.752;2024-02-21T10:30:51;101005.00;;;19.86;36.58
16613;BME280;8419;52.358;9.752;2024-02-21T10:33:37;100990.00;;;19.76;36.37
16613;BME280;8419;52.358;9.752;2024-02-21T10:36:23;101000.00;;;19.72;36.24
16613;BME280;8419;52.358;9.752;2024-02-21T10:39:10;100998.00;;;19.76;36.40
16613;BME280;8419;52.358;9.752;2024-02-21T10:41:56;100999.00;;;19.73;36.54
16613;BME280;8419;52.358;9.752;2024-02-21T10:44:46;100979.00;;;19.75;35.88
16613;BME280;8419;52.358;9.752;2024-02-21T10:47:37;100969.00;;;19.89;35.83
16613;BME280;8419;52.358;9.752;2024-02-21T10:50:25;100964.00;;;19.91;36.00
16613;BME280;8419;52.358;9.752;2024-02-21T10:53:28;100962.00;;;20.07;35.72
16613;BME280;8419;52.358;9.752;2024-02-21T10:56:22;100961.00;;;19.92;35.78
16613;BME280;8419;52.358;9.752;2024-02-21T10:59:11;100933.00;;;20.09;35.45
16613;BME280;8419;52.358;9.752;2024-02-21T11:01:58;100952.00;;;19.82;35.53
16613;BME280;8419;52.358;9.752;2024-02-21T11:04:43;100949.00;;;19.90;35.34
16613;BME280;8419;52.358;9.752;2024-02-21T11:07:31;100928.00;;;19.93;35.05
16613;BME280;8419;52.358;9.752;2024-02-21T11:10:26;100936.00;;;19.94;35.24
16613;BME280;8419;52.358;9.752;2024-02-21T11:13:11;100929.00;;;20.00;35.23
16613;BME280;8419;52.358;9.752;2024-02-21T11:16:08;100932.00;;;20.00;34.95
16613;BME280;8419;52.358;9.752;2024-02-21T11:19:05;100923.00;;;20.09;34.68
16613;BME280;8419;52.358;9.752;2024-02-21T11:21:54;100914.00;;;20.10;34.60
16613;BME280;8419;52.358;9.752;2024-02-21T11:24:40;100906.00;;;20.13;34.53
16613;BME280;8419;52.358;9.752;2024-02-21T11:27:26;100911.00;;;20.25;34.41
16613;BME280;8419;52.358;9.752;2024-02-21T11:30:12;100902.00;;;20.26;34.27
16613;BME280;8419;52.358;9.752;2024-02-21T11:33:02;100896.00;;;20.27;34.22
16613;BME280;8419;52.358;9.752;2024-02-21T11:35:48;100891.00;;;20.27;34.08
16613;BME280;8419;52.358;9.752;2024-02-21T11:38:33;100889.00;;;20.35;34.03
16613;BME280;8419;52.358;9.752;2024-02-21T11:41:19;100887.00;;;20.42;33.96
16613;BME280;8419;52.358;9.752;2024-02-21T11:44:06;100895.00;;;20.52;33.77
16613;BME280;8419;52.358;9.752;2024-02-21T11:46:51;100877.00;;;20.33;33.66
16613;BME280;8419;52.358;9.752;2024-02-21T11:49:38;100873.00;;;20.31;33.81
16613;BME280;8419;52.358;9.752;2024-02-21T11:52:25;100877.00;;;20.22;33.87
16613;BME280;8419;52.358;9.752;2024-02-21T11:55:11;100860.00;;;20.08;33.85
16613;BME280;8419;52.358;9.752;2024-02-21T11:57:57;100866.00;;;20.14;34.06
16613;BME280;8419;52.358;9.752;2024-02-21T12:00:42;100847.00;;;20.41;33.56
16613;BME280;8419;52.358;9.752;2024-02-21T12:03:27;100856.00;;;20.29;33.47
16613;BME280;8419;52.358;9.752;2024-02-21T12:06:14;100846.00;;;20.35;33.32
16613;BME280;8419;52.358;9.752;2024-02-21T12:09:00;100841.00;;;20.45;33.33
16613;BME280;8419;52.358;9.752;2024-02-21T12:11:56;100819.00;;;20.63;33.01
16613;BME280;8419;52.358;9.752;2024-02-21T12:14:42;100828.00;;;20.68;32.88
16613;BME280;8419;52.358;9.752;2024-02-21T12:17:28;100809.00;;;20.50;32.82
16613;BME280;8419;52.358;9.752;2024-02-21T12:20:15;100808.00;;;20.82;32.68
16613;BME280;8419;52.358;9.752;2024-02-21T12:23:01;100804.00;;;20.98;32.65
16613;BME280;8419;52.358;9.752;2024-02-21T12:25:47;100804.00;;;21.02;32.48
16613;BME280;8419;52.358;9.752;2024-02-21T12:28:32;100810.00;;;20.83;32.26
16613;BME280;8419;52.358;9.752;2024-02-21T12:31:18;100799.00;;;20.73;32.24
16613;BME280;8419;52.358;9.752;2024-02-21T12:34:04;100799.00;;;20.98;31.94
16613;BME280;8419;52.358;9.752;2024-02-21T12:36:52;100787.00;;;21.08;32.18
16613;BME280;8419;52.358;9.752;2024-02-21T12:39:37;100787.00;;;21.24;31.68
16613;BME280;8419;52.358;9.752;2024-02-21T12:42:23;100795.00;;;21.09;31.63
16613;BME280;8419;52.358;9.752;2024-02-21T12:45:12;100782.00;;;20.88;31.61
16613;BME280;8419;52.358;9.752;2024-02-21T12:47:57;100782.00;;;20.93;31.65
16613;BME280;8419;52.358;9.752;2024-02-21T12:50:49;100788.00;;;21.02;31.63
16613;BME280;8419;52.358;9.752;2024-02-21T12:53:36;100789.00;;;21.12;31.62
16613;BME280;8419;52.358;9.752;2024-02-21T12:56:21;100774.00;;;21.09;31.56
16613;BME280;8419;52.358;9.752;2024-02-21T12:59:07;100774.00;;;20.96;31.49
16613;BME280;8419;52.358;9.752;2024-02-21T13:01:54;100767.00;;;20.92;31.59
16613;BME280;8419;52.358;9.752;2024-02-21T13:04:39;100764.00;;;20.92;31.60
16613;BME280;8419;52.358;9.752;2024-02-21T13:07:26;100756.00;;;20.92;31.60
16613;BME280;8419;52.358;9.752;2024-02-21T13:10:11;100741.00;;;21.03;31.56
16613;BME280;8419;52.358;9.752;2024-02-21T13:12:57;100745.00;;;21.05;31.60
16613;BME280;8419;52.358;9.752;2024-02-21T13:15:43;100738.00;;;21.01;31.79
16613;BME280;8419;52.358;9.752;2024-02-21T13:18:30;100716.00;;;20.91;31.74
16613;BME280;8419;52.358;9.752;2024-02-21T13:21:17;100722.00;;;20.82;31.80
16613;BME280;8419;52.358;9.752;2024-02-21T13:24:05;100712.00;;;20.71;31.79
16613;BME280;8419;52.358;9.752;2024-02-21T13:26:50;100710.00;;;20.74;31.84
16613;BME280;8419;52.358;9.752;2024-02-21T13:29:36;100698.00;;;20.70;31.85
16613;BME280;8419;52.358;9.752;2024-02-21T13:32:25;100696.00;;;20.68;32.07
16613;BME280;8419;52.358;9.752;2024-02-21T13:35:13;100690.00;;;20.83;31.89
16613;BME280;8419;52.358;9.752;2024-02-21T13:38:00;100690.00;;;20.75;31.96
16613;BME280;8419;52.358;9.752;2024-02-21T13:40:46;100669.00;;;20.72;32.15
16613;BME280;8419;52.358;9.752;2024-02-21T13:43:31;100674.00;;;20.82;32.05
16613;BME280;8419;52.358;9.752;2024-02-21T13:46:17;100664.00;;;20.77;32.06
16613;BME280;8419;52.358;9.752;2024-02-21T13:49:05;100642.00;;;20.72;32.14
16613;BME280;8419;52.358;9.752;2024-02-21T13:51:51;100628.00;;;20.67;32.18
16613;BME280;8419;52.358;9.752;2024-02-21T13:54:36;100626.00;;;20.63;32.22
16613;BME280;8419;52.358;9.752;2024-02-21T13:57:22;100622.00;;;20.60;32.30
16613;BME280;8419;52.358;9.752;2024-02-21T14:00:09;100607.00;;;20.48;32.28
16613;BME280;8419;52.358;9.752;2024-02-21T14:03:03;100607.00;;;20.40;32.39
16613;BME280;8419;52.358;9.752;2024-02-21T14:05:49;100589.00;;;20.50;32.22
16613;BME280;8419;52.358;9.752;2024-02-21T14:08:35;100585.00;;;20.48;32.31
16613;BME280;8419;52.358;9.752;2024-02-21T14:11:21;100579.00;;;20.41;32.55
16613;BME280;8419;52.358;9.752;2024-02-21T14:14:08;100584.00;;;20.44;32.48
16613;BME280;8419;52.358;9.752;2024-02-21T14:16:53;100586.00;;;20.38;32.49
16613;BME280;8419;52.358;9.752;2024-02-21T14:19:40;100587.00;;;20.28;32.46
16613;BME280;8419;52.358;9.752;2024-02-21T14:22:27;100582.00;;;20.23;32.64
16613;BME280;8419;52.358;9.752;2024-02-21T14:25:12;100576.00;;;20.19;32.70
16613;BME280;8419;52.358;9.752;2024-02-21T14:27:58;100556.00;;;20.11;32.86
16613;BME280;8419;52.358;9.752;2024-02-21T14:30:45;100544.00;;;20.28;32.75
16613;BME280;8419;52.358;9.752;2024-02-21T14:33:32;100523.00;;;20.22;32.91
16613;BME280;8419;52.358;9.752;2024-02-21T14:36:18;100508.00;;;20.26;32.95
16613;BME280;8419;52.358;9.752;2024-02-21T14:39:03;100489.00;;;20.24;33.02
16613;BME280;8419;52.358;9.752;2024-02-21T14:41:51;100483.00;;;20.22;33.16
16613;BME280;8419;52.358;9.752;2024-02-21T14:44:37;100464.00;;;20.22;33.30